Time;durP1;ratioP1;P1;durP2;ratioP2;P2;SDS_P1;SDS_P2;PMS_P1;PMS_P2;Temp;Humidity;BMP_temperature;BMP_pressure;BME280_temperature;BME280_humidity;BME280_pressure;Samples;Min_cycle;Max_cycle;Signal;HPM_P1;HPM_P2
2021/12/12 00:01:38;;;;;;;9.75;5.43;;;;;;;;;;5116715;28;20471;-69
2021/12/12 00:04:12;;;;;;;13.35;6.70;;;;;;;;;;5061620;28;20040;-69
2021/12/12 00:06:48;;;;;;;11.88;5.50;;;;;;;;;;5054260;28;20029;-72
2021/12/12 00:09:36;;;;;;;13.35;6.00;;;;;;;;;;5084339;28;20039;-70
2021/12/12 00:12:10;;;;;;;13.73;6.57;;;;;;;;;;5115970;28;20118;-70
2021/12/12 00:14:36;;;;;;;14.63;7.43;;;;;;;;;;5116361;28;20403;-72
2021/12/12 00:17:05;;;;;;;15.05;6.97;;;;;;;;;;5116241;27;20088;-70
2021/12/12 00:19:31;;;;;;;15.07;7.35;;;;;;;;;;5116336;28;20066;-74
2021/12/12 00:21:59;;;;;;;14.82;6.00;;;;;;;;;;5116259;28;20059;-71
2021/12/12 00:24:25;;;;;;;14.50;6.38;;;;;;;;;;5115980;28;20468;-71
2021/12/12 00:26:53;;;;;;;16.83;6.55;;;;;;;;;;5116212;28;20073;-70
2021/12/12 00:29:21;;;;;;;15.95;6.88;;;;;;;;;;5116367;28;20023;-72
2021/12/12 00:31:51;;;;;;;15.55;6.68;;;;;;;;;;5111950;28;20023;-70
2021/12/12 00:34:18;;;;;;;16.30;6.55;;;;;;;;;;5115879;27;20110;-69
2021/12/12 00:36:44;;;;;;;14.57;6.80;;;;;;;;;;5116120;28;20032;-71
2021/12/12 00:39:16;;;;;;;14.90;6.40;;;;;;;;;;5116058;28;20039;-72
2021/12/12 00:41:48;;;;;;;12.88;6.40;;;;;;;;;;5115835;28;20024;-71
2021/12/12 00:44:14;;;;;;;10.40;5.40;;;;;;;;;;5114860;28;20028;-70
2021/12/12 00:46:41;;;;;;;11.60;5.60;;;;;;;;;;5115564;28;20445;-71
2021/12/12 00:49:08;;;;;;;10.13;5.45;;;;;;;;;;5115651;28;20027;-72
2021/12/12 00:51:39;;;;;;;12.15;5.90;;;;;;;;;;5115957;28;20540;-73
2021/12/12 00:54:05;;;;;;;12.10;5.18;;;;;;;;;;5115351;27;20035;-70
2021/12/12 00:56:31;;;;;;;9.95;5.32;;;;;;;;;;5115866;28;20024;-72
2021/12/12 00:58:58;;;;;;;8.95;4.15;;;;;;;;;;5115666;28;20027;-71
2021/12/12 01:01:37;;;;;;;9.20;4.70;;;;;;;;;;5115822;28;20039;-71
2021/12/12 01:04:09;;;;;;;10.90;5.03;;;;;;;;;;5115236;28;20085;-72
2021/12/12 01:06:36;;;;;;;9.30;4.90;;;;;;;;;;5115594;27;20046;-72
2021/12/12 01:09:07;;;;;;;11.43;5.75;;;;;;;;;;5115297;28;20031;-73
2021/12/12 01:11:41;;;;;;;10.70;4.57;;;;;;;;;;5115573;28;20499;-73
2021/12/12 01:14:11;;;;;;;10.00;4.70;;;;;;;;;;5115029;28;20023;-70
2021/12/12 01:16:54;;;;;;;9.75;4.55;;;;;;;;;;5115365;28;20100;-71
2021/12/12 01:19:24;;;;;;;8.15;4.30;;;;;;;;;;5115144;27;20661;-70
2021/12/12 01:21:54;;;;;;;8.88;4.38;;;;;;;;;;5114112;28;20033;-70
2021/12/12 01:24:32;;;;;;;8.85;4.07;;;;;;;;;;5115060;28;20424;-71
2021/12/12 01:27:00;;;;;;;8.65;4.63;;;;;;;;;;5115131;28;20031;-71
2021/12/12 01:29:26;;;;;;;9.23;4.60;;;;;;;;;;5115017;28;20111;-70
2021/12/12 01:31:52;;;;;;;8.52;4.45;;;;;;;;;;5110723;28;20023;-71
2021/12/12 01:34:25;;;;;;;8.32;4.10;;;;;;;;;;5114760;28;20046;-69
2021/12/12 01:39:27;;;;;;;9.27;4.15;;;;;;;;;;5114866;28;20050;-72
2021/12/12 01:42:04;;;;;;;7.05;3.85;;;;;;;;;;5114854;28;20031;-71
2021/12/12 01:44:58;;;;;;;7.72;3.75;;;;;;;;;;5113584;28;20032;-71
2021/12/12 01:47:37;;;;;;;8.70;3.92;;;;;;;;;;5113634;28;20379;-69
2021/12/12 01:50:11;;;;;;;7.75;3.83;;;;;;;;;;5114522;28;20031;-70
2021/12/12 01:52:40;;;;;;;9.52;3.67;;;;;;;;;;5114896;28;20032;-72
2021/12/12 01:55:24;;;;;;;9.00;3.80;;;;;;;;;;5114224;28;20393;-72
2021/12/12 01:57:53;;;;;;;7.45;3.35;;;;;;;;;;5114837;28;20054;-71
2021/12/12 02:00:42;;;;;;;9.05;4.20;;;;;;;;;;5113455;28;20035;-71
2021/12/12 02:03:11;;;;;;;6.03;3.42;;;;;;;;;;5113909;28;20050;-71
2021/12/12 02:05:38;;;;;;;6.93;3.47;;;;;;;;;;5114368;28;20031;-69
2021/12/12 02:08:08;;;;;;;8.35;3.47;;;;;;;;;;5114312;28;20084;-74
2021/12/12 02:10:42;;;;;;;8.65;4.00;;;;;;;;;;5114412;28;20036;-69
2021/12/12 02:13:12;;;;;;;8.75;3.50;;;;;;;;;;5113918;28;20028;-73
2021/12/12 02:15:39;;;;;;;8.70;3.55;;;;;;;;;;5114321;28;20498;-71
2021/12/12 02:18:10;;;;;;;6.97;3.33;;;;;;;;;;5114070;28;20507;-72
2021/12/12 02:20:53;;;;;;;6.97;3.15;;;;;;;;;;5113938;28;20055;-70
2021/12/12 02:23:41;;;;;;;7.25;3.30;;;;;;;;;;5113795;28;20160;-72
2021/12/12 02:37:08;;;;;;;7.20;3.00;;;;;;;;;;5113928;28;20064;-73
2021/12/12 02:39:35;;;;;;;5.13;2.67;;;;;;;;;;5113929;28;20110;-70
2021/12/12 02:42:13;;;;;;;7.72;2.63;;;;;;;;;;5113869;28;20152;-69
2021/12/12 02:44:43;;;;;;;7.15;2.80;;;;;;;;;;5113976;28;20035;-71
2021/12/12 02:47:14;;;;;;;6.65;2.80;;;;;;;;;;5113833;28;20499;-70
2021/12/12 02:49:56;;;;;;;8.55;3.20;;;;;;;;;;5113980;28;20081;-73
2021/12/12 02:52:29;;;;;;;6.63;2.97;;;;;;;;;;5113723;28;20372;-72
2021/12/12 02:55:00;;;;;;;8.20;2.70;;;;;;;;;;5113194;28;20036;-71
2021/12/12 02:57:27;;;;;;;5.55;2.50;;;;;;;;;;5113832;28;20031;-72
2021/12/12 02:59:53;;;;;;;6.22;2.67;;;;;;;;;;5113653;28;20039;-72
2021/12/12 03:02:28;;;;;;;7.15;2.60;;;;;;;;;;5113530;28;20372;-72
2021/12/12 03:05:04;;;;;;;5.63;2.55;;;;;;;;;;5113505;28;20043;-72
2021/12/12 03:07:30;;;;;;;4.50;2.50;;;;;;;;;;5113631;28;20157;-70
2021/12/12 03:09:57;;;;;;;7.65;2.53;;;;;;;;;;5113761;28;20111;-73
2021/12/12 03:12:31;;;;;;;5.65;2.35;;;;;;;;;;5117664;28;20491;-73
2021/12/12 03:15:00;;;;;;;6.93;2.83;;;;;;;;;;5117668;28;20135;-70
2021/12/12 03:17:26;;;;;;;5.45;2.50;;;;;;;;;;5117565;28;20035;-70
2021/12/12 03:19:59;;;;;;;7.65;2.60;;;;;;;;;;5116474;28;20558;-71
2021/12/12 03:22:26;;;;;;;5.25;2.35;;;;;;;;;;5117656;28;20145;-72
2021/12/12 03:24:53;;;;;;;5.22;2.50;;;;;;;;;;5117266;28;20464;-73
2021/12/12 03:27:20;;;;;;;6.05;2.70;;;;;;;;;;5117402;28;20112;-71
2021/12/12 03:29:49;;;;;;;5.65;2.60;;;;;;;;;;5114323;28;20434;-73
2021/12/12 03:32:18;;;;;;;6.03;2.30;;;;;;;;;;5114255;28;20035;-70
2021/12/12 03:34:48;;;;;;;6.28;2.38;;;;;;;;;;5117272;27;20410;-73
2021/12/12 03:37:16;;;;;;;6.07;2.17;;;;;;;;;;5117132;28;20106;-72
2021/12/12 03:39:47;;;;;;;5.20;2.30;;;;;;;;;;5117344;28;20030;-71
2021/12/12 03:42:17;;;;;;;4.78;2.25;;;;;;;;;;5117051;28;20092;-73
2021/12/12 03:44:45;;;;;;;5.45;2.25;;;;;;;;;;5117177;28;20054;-70
2021/12/12 03:47:30;;;;;;;4.75;2.00;;;;;;;;;;5117095;27;20506;-72
2021/12/12 03:49:58;;;;;;;5.00;2.10;;;;;;;;;;5116991;28;20059;-70
2021/12/12 03:52:25;;;;;;;6.10;2.15;;;;;;;;;;5116944;28;20066;-73
2021/12/12 03:54:53;;;;;;;4.47;2.00;;;;;;;;;;5116815;28;20027;-71
2021/12/12 03:57:20;;;;;;;4.22;2.10;;;;;;;;;;5116213;28;20039;-72
2021/12/12 03:59:47;;;;;;;4.75;2.00;;;;;;;;;;5116987;28;20035;-73
2021/12/12 04:02:13;;;;;;;4.30;1.90;;;;;;;;;;5116578;28;20039;-74
2021/12/12 04:04:43;;;;;;;4.22;2.00;;;;;;;;;;5116492;28;20023;-72
2021/12/12 04:07:13;;;;;;;5.00;1.90;;;;;;;;;;5117015;28;20062;-70
2021/12/12 04:09:38;;;;;;;4.97;2.13;;;;;;;;;;5116884;28;20102;-72
2021/12/12 04:12:08;;;;;;;5.45;2.08;;;;;;;;;;5116703;28;20525;-70
2021/12/12 04:14:34;;;;;;;4.35;1.80;;;;;;;;;;5116334;28;20384;-73
2021/12/12 04:17:05;;;;;;;5.03;1.60;;;;;;;;;;5116585;28;20049;-71
2021/12/12 04:19:31;;;;;;;4.35;1.90;;;;;;;;;;5116106;28;20454;-72
2021/12/12 04:21:58;;;;;;;3.67;1.67;;;;;;;;;;5115530;28;20081;-71
2021/12/12 04:24:28;;;;;;;2.65;1.38;;;;;;;;;;5116051;28;20368;-73
2021/12/12 04:26:54;;;;;;;3.83;1.63;;;;;;;;;;5116361;28;20056;-73
2021/12/12 04:29:28;;;;;;;3.80;1.70;;;;;;;;;;5116190;28;20088;-71
2021/12/12 04:31:56;;;;;;;3.15;1.40;;;;;;;;;;5110966;28;20106;-70
2021/12/12 04:34:27;;;;;;;3.65;1.70;;;;;;;;;;5115919;28;20382;-69
2021/12/12 04:36:54;;;;;;;3.67;1.63;;;;;;;;;;5115068;28;20052;-70
2021/12/12 04:39:25;;;;;;;3.13;1.60;;;;;;;;;;5116030;28;20031;-71
2021/12/12 04:41:52;;;;;;;;;;;;;;;;;;5116410;28;20036;-72
2021/12/12 04:44:29;;;;;;;2.20;1.40;;;;;;;;;;5115799;28;20396;-69
2021/12/12 04:50:30;;;;;;;3.63;1.67;;;;;;;;;;5115974;28;20046;-72
2021/12/12 04:53:06;;;;;;;3.90;1.55;;;;;;;;;;5116178;28;20039;-72
2021/12/12 04:55:41;;;;;;;2.63;1.40;;;;;;;;;;5115532;28;20047;-70
2021/12/12 04:58:21;;;;;;;3.83;1.60;;;;;;;;;;5115891;27;20031;-73
2021/12/12 05:01:06;;;;;;;2.73;1.30;;;;;;;;;;5115898;28;20046;-73
2021/12/12 05:03:44;;;;;;;4.63;1.50;;;;;;;;;;5115506;28;20036;-72
2021/12/12 05:06:28;;;;;;;3.05;1.65;;;;;;;;;;5115214;28;20035;-74
2021/12/12 05:09:05;;;;;;;4.30;1.50;;;;;;;;;;5115495;28;20030;-69
2021/12/12 05:11:40;;;;;;;4.00;1.70;;;;;;;;;;5115430;27;20085;-70
2021/12/12 05:14:13;;;;;;;2.47;1.23;;;;;;;;;;5115549;28;20035;-71
2021/12/12 05:16:43;;;;;;;4.25;1.92;;;;;;;;;;5115344;28;20028;-71
2021/12/12 05:19:15;;;;;;;3.38;1.70;;;;;;;;;;5115218;28;20035;-71
2021/12/12 05:21:47;;;;;;;2.45;1.50;;;;;;;;;;5115171;28;20048;-71
2021/12/12 05:24:14;;;;;;;4.03;1.60;;;;;;;;;;5115030;28;20092;-72
2021/12/12 05:26:50;;;;;;;3.25;1.48;;;;;;;;;;5115240;28;20043;-71
2021/12/12 05:29:30;;;;;;;3.90;1.65;;;;;;;;;;5115153;28;20027;-72
2021/12/12 05:31:59;;;;;;;5.35;1.40;;;;;;;;;;5109384;28;20028;-71
2021/12/12 05:34:30;;;;;;;2.97;1.67;;;;;;;;;;5114858;28;20028;-72
2021/12/12 05:36:57;;;;;;;5.25;1.65;;;;;;;;;;5114982;28;20070;-72
2021/12/12 05:39:24;;;;;;;3.15;1.40;;;;;;;;;;5114860;28;20031;-69
2021/12/12 05:41:52;;;;;;;3.03;1.60;;;;;;;;;;5114824;28;20031;-71
2021/12/12 05:44:18;;;;;;;3.90;1.67;;;;;;;;;;5114817;28;20031;-71
2021/12/12 05:46:44;;;;;;;3.95;1.60;;;;;;;;;;5114653;28;20035;-71
2021/12/12 05:49:11;;;;;;;3.22;1.60;;;;;;;;;;5114671;28;20469;-72
2021/12/12 05:51:37;;;;;;;2.65;1.60;;;;;;;;;;5114740;28;20023;-72
2021/12/12 05:54:03;;;;;;;2.47;1.40;;;;;;;;;;5114724;28;20084;-72
2021/12/12 05:56:32;;;;;;;2.47;1.33;;;;;;;;;;5114393;28;20032;-72
2021/12/12 05:58:58;;;;;;;2.92;1.40;;;;;;;;;;5114606;28;20483;-70
2021/12/12 06:01:25;;;;;;;3.30;1.60;;;;;;;;;;5114431;28;20035;-71
2021/12/12 06:03:52;;;;;;;3.05;1.58;;;;;;;;;;5114515;28;20031;-72
2021/12/12 06:06:21;;;;;;;3.83;1.52;;;;;;;;;;5113300;28;20058;-71
2021/12/12 06:08:48;;;;;;;3.53;1.67;;;;;;;;;;5114225;28;20039;-72
2021/12/12 06:11:16;;;;;;;3.10;1.50;;;;;;;;;;5113367;28;20049;-73
2021/12/12 06:13:43;;;;;;;4.50;1.50;;;;;;;;;;5114377;28;20054;-71
2021/12/12 06:16:18;;;;;;;3.03;1.27;;;;;;;;;;5114402;28;20088;-71
2021/12/12 06:18:50;;;;;;;2.58;1.38;;;;;;;;;;5114183;28;20031;-71
2021/12/12 06:21:16;;;;;;;3.13;1.65;;;;;;;;;;5114160;28;20535;-71
2021/12/12 06:23:43;;;;;;;3.35;1.60;;;;;;;;;;5114249;28;20081;-70
2021/12/12 06:26:10;;;;;;;4.65;1.67;;;;;;;;;;5114225;28;20088;-71
2021/12/12 06:28:39;;;;;;;3.45;1.75;;;;;;;;;;5113847;28;20043;-70
2021/12/12 06:31:06;;;;;;;3.58;1.65;;;;;;;;;;5106908;28;20057;-74
2021/12/12 06:33:32;;;;;;;2.88;1.50;;;;;;;;;;5114185;28;20088;-73
2021/12/12 06:35:58;;;;;;;3.85;1.52;;;;;;;;;;5113954;28;20027;-74
2021/12/12 06:38:25;;;;;;;3.10;1.73;;;;;;;;;;5113837;28;20429;-71
2021/12/12 06:40:53;;;;;;;4.95;1.60;;;;;;;;;;5113842;28;20353;-72
2021/12/12 06:43:21;;;;;;;2.90;1.60;;;;;;;;;;5114061;28;20032;-71
2021/12/12 06:45:48;;;;;;;3.83;1.67;;;;;;;;;;5113350;28;20061;-73
2021/12/12 06:48:15;;;;;;;2.72;1.42;;;;;;;;;;5113661;28;20482;-73
2021/12/12 06:50:45;;;;;;;4.43;1.60;;;;;;;;;;5114052;28;20040;-72
2021/12/12 06:53:14;;;;;;;2.80;1.17;;;;;;;;;;5113984;28;20111;-73
2021/12/12 06:55:44;;;;;;;3.13;1.60;;;;;;;;;;5113757;28;20093;-73
2021/12/12 06:58:11;;;;;;;2.88;1.50;;;;;;;;;;5113553;28;20028;-72
2021/12/12 07:00:38;;;;;;;3.92;1.60;;;;;;;;;;5113706;28;20082;-71
2021/12/12 07:03:04;;;;;;;3.78;1.73;;;;;;;;;;5113690;28;20032;-71
2021/12/12 07:05:30;;;;;;;4.88;1.42;;;;;;;;;;5113605;28;20172;-73
2021/12/12 07:07:57;;;;;;;4.45;1.67;;;;;;;;;;5113586;28;20036;-71
2021/12/12 07:10:27;;;;;;;3.97;1.90;;;;;;;;;;5113666;28;20063;-71
2021/12/12 07:12:55;;;;;;;3.22;1.40;;;;;;;;;;5113576;28;20471;-73
2021/12/12 07:15:25;;;;;;;2.92;1.50;;;;;;;;;;5113557;28;20028;-71
2021/12/12 07:17:58;;;;;;;3.15;1.70;;;;;;;;;;5113396;28;20372;-69
2021/12/12 07:20:24;;;;;;;4.00;1.38;;;;;;;;;;5113506;28;20055;-71
2021/12/12 07:22:51;;;;;;;6.25;1.60;;;;;;;;;;5113496;28;20047;-70
2021/12/12 07:25:17;;;;;;;6.32;1.70;;;;;;;;;;5113593;28;20084;-71
2021/12/12 07:27:43;;;;;;;3.22;1.65;;;;;;;;;;5113296;28;20096;-70
2021/12/12 07:30:09;;;;;;;4.38;2.00;;;;;;;;;;5106260;28;20032;-72
2021/12/12 07:32:39;;;;;;;7.03;2.20;;;;;;;;;;5112163;28;20027;-71
2021/12/12 07:35:10;;;;;;;4.90;1.88;;;;;;;;;;5113542;28;20042;-70
2021/12/12 07:37:37;;;;;;;4.25;2.30;;;;;;;;;;5112836;28;20056;-71
2021/12/12 07:40:06;;;;;;;6.60;2.70;;;;;;;;;;5113446;28;20066;-69
2021/12/12 07:42:33;;;;;;;3.70;2.20;;;;;;;;;;5112991;28;20028;-70
2021/12/12 07:44:59;;;;;;;2.83;1.80;;;;;;;;;;5113458;28;20499;-70
2021/12/12 07:47:25;;;;;;;3.85;1.85;;;;;;;;;;5113121;28;20103;-73
2021/12/12 07:49:52;;;;;;;4.57;2.00;;;;;;;;;;5113274;28;20043;-70
2021/12/12 07:52:22;;;;;;;4.13;1.80;;;;;;;;;;5113348;28;20020;-73
2021/12/12 07:54:49;;;;;;;3.53;1.88;;;;;;;;;;5113424;28;20031;-71
2021/12/12 07:57:16;;;;;;;4.20;1.85;;;;;;;;;;5113808;28;20028;-69
2021/12/12 07:59:43;;;;;;;3.53;1.77;;;;;;;;;;5116745;28;20031;-72
2021/12/12 08:02:11;;;;;;;5.95;1.77;;;;;;;;;;5116860;28;20038;-70
2021/12/12 08:04:38;;;;;;;4.55;1.85;;;;;;;;;;5116708;28;20042;-71
2021/12/12 08:07:07;;;;;;;4.57;1.85;;;;;;;;;;5116846;28;20178;-73
2021/12/12 08:09:33;;;;;;;3.03;1.65;;;;;;;;;;5116333;28;20023;-70
2021/12/12 08:11:59;;;;;;;5.18;1.80;;;;;;;;;;5116724;28;20360;-73
2021/12/12 08:14:27;;;;;;;4.05;1.70;;;;;;;;;;5116540;28;20032;-70
2021/12/12 08:16:54;;;;;;;5.15;2.00;;;;;;;;;;5116586;28;20356;-73
2021/12/12 08:19:24;;;;;;;3.92;1.80;;;;;;;;;;5116281;28;20049;-72
2021/12/12 08:21:52;;;;;;;4.72;1.75;;;;;;;;;;5116310;28;20475;-71
2021/12/12 08:24:18;;;;;;;5.15;2.15;;;;;;;;;;5116416;28;20456;-74
2021/12/12 08:26:45;;;;;;;8.23;2.00;;;;;;;;;;5116360;28;20110;-73
2021/12/12 08:29:13;;;;;;;4.85;2.20;;;;;;;;;;5116088;28;20034;-75
2021/12/12 08:31:39;;;;;;;4.15;2.10;;;;;;;;;;5107897;28;20076;-74
2021/12/12 08:34:08;;;;;;;5.25;2.20;;;;;;;;;;5116377;28;20039;-71
2021/12/12 08:36:37;;;;;;;5.30;1.92;;;;;;;;;;5116667;28;20054;-73
2021/12/12 08:39:08;;;;;;;4.18;1.95;;;;;;;;;;5115854;28;20156;-73
2021/12/12 08:41:35;;;;;;;3.05;1.77;;;;;;;;;;5116169;28;20019;-71
2021/12/12 08:44:02;;;;;;;5.32;2.22;;;;;;;;;;5116128;28;20059;-73
2021/12/12 08:46:28;;;;;;;5.97;2.10;;;;;;;;;;5115871;28;20104;-74
2021/12/12 08:48:54;;;;;;;4.13;2.20;;;;;;;;;;5115826;28;20049;-72
2021/12/12 08:51:34;;;;;;;8.50;2.40;;;;;;;;;;5115881;28;20165;-72
2021/12/12 08:54:12;;;;;;;5.93;2.47;;;;;;;;;;5115953;28;20102;-73
2021/12/12 08:56:43;;;;;;;5.75;3.10;;;;;;;;;;5115740;28;20038;-73
2021/12/12 08:59:11;;;;;;;5.85;2.70;;;;;;;;;;5115315;28;20426;-72
2021/12/12 09:01:39;;;;;;;5.45;2.60;;;;;;;;;;5115534;27;20028;-74
2021/12/12 09:04:08;;;;;;;5.88;2.90;;;;;;;;;;5115752;28;20027;-70
2021/12/12 09:06:41;;;;;;;5.40;2.63;;;;;;;;;;5115463;28;20031;-71
2021/12/12 09:09:22;;;;;;;6.30;2.47;;;;;;;;;;5114929;28;20133;-73
2021/12/12 09:12:01;;;;;;;7.18;3.10;;;;;;;;;;5115344;28;20023;-71
2021/12/12 09:14:38;;;;;;;10.20;3.67;;;;;;;;;;5115317;28;20055;-73
2021/12/12 09:17:25;;;;;;;10.18;3.58;;;;;;;;;;5115531;28;20023;-72
2021/12/12 09:20:02;;;;;;;7.47;3.05;;;;;;;;;;5114788;28;20113;-70
2021/12/12 09:22:34;;;;;;;5.93;3.25;;;;;;;;;;5114980;28;20380;-72
2021/12/12 09:25:16;;;;;;;5.88;3.10;;;;;;;;;;5115412;28;20027;-72
2021/12/12 09:27:48;;;;;;;6.38;3.35;;;;;;;;;;5115134;28;20023;-72
2021/12/12 09:30:20;;;;;;;8.10;2.95;;;;;;;;;;5114649;28;20034;-72
2021/12/12 09:33:24;;;;;;;5.57;2.60;;;;;;;;;;5114984;28;20086;-70
2021/12/12 09:35:55;;;;;;;6.20;2.83;;;;;;;;;;5097322;28;20039;-73
2021/12/12 09:38:30;;;;;;;5.78;2.70;;;;;;;;;;5114838;28;20076;-71
2021/12/12 09:41:42;;;;;;;5.00;2.20;;;;;;;;;;5115063;27;20452;-72
2021/12/12 09:44:29;;;;;;;4.10;2.10;;;;;;;;;;5114908;28;20031;-73
2021/12/12 09:47:26;;;;;;;5.68;2.20;;;;;;;;;;5114865;28;20038;-71
2021/12/12 09:53:30;;;;;;;6.25;2.40;;;;;;;;;;5115006;28;20092;-73
2021/12/12 09:55:55;;;;;;;4.85;2.20;;;;;;;;;;5114822;28;20140;-73
2021/12/12 09:58:42;;;;;;;5.68;2.50;;;;;;;;;;5114361;28;20039;-72
2021/12/12 10:01:19;;;;;;;6.20;2.65;;;;;;;;;;5114597;28;20967;-72
2021/12/12 10:03:47;;;;;;;5.15;2.50;;;;;;;;;;5114455;28;20027;-72
2021/12/12 10:06:39;;;;;;;5.53;2.58;;;;;;;;;;5114684;28;20116;-74
2021/12/12 10:09:13;;;;;;;5.00;2.40;;;;;;;;;;5114253;28;20441;-70
2021/12/12 10:12:04;;;;;;;7.00;2.83;;;;;;;;;;5114343;28;20043;-71
2021/12/12 10:14:39;;;;;;;;;;;;;;;;;;5114567;28;20055;-72
2021/12/12 10:17:26;;;;;;;6.97;2.47;;;;;;;;;;5114429;28;20002;-71
2021/12/12 10:20:03;;;;;;;4.10;2.40;;;;;;;;;;5112860;28;20048;-71
2021/12/12 10:22:46;;;;;;;4.80;2.50;;;;;;;;;;5114075;28;20039;-73
2021/12/12 10:25:21;;;;;;;6.30;3.15;;;;;;;;;;5114157;28;20442;-74
2021/12/12 10:27:51;;;;;;;7.90;3.05;;;;;;;;;;5114294;28;20045;-74
2021/12/12 10:30:25;;;;;;;5.43;2.50;;;;;;;;;;5113001;28;20028;-74
2021/12/12 10:33:13;;;;;;;5.15;2.65;;;;;;;;;;5113871;28;20043;-71
2021/12/12 10:35:44;;;;;;;4.40;2.45;;;;;;;;;;5114064;28;20081;-72
2021/12/12 10:38:33;;;;;;;4.65;2.55;;;;;;;;;;5113988;28;20487;-74
2021/12/12 10:41:03;;;;;;;4.78;2.70;;;;;;;;;;5114127;28;20125;-74
2021/12/12 10:43:49;;;;;;;6.13;3.15;;;;;;;;;;5113888;28;20038;-72
2021/12/12 10:46:33;;;;;;;7.32;3.20;;;;;;;;;;5114135;28;20058;-72
2021/12/12 10:49:32;;;;;;;6.15;3.05;;;;;;;;;;5113844;28;20054;-71
2021/12/12 10:52:09;;;;;;;5.88;2.90;;;;;;;;;;5113063;28;20032;-72
2021/12/12 10:54:43;;;;;;;4.72;2.30;;;;;;;;;;5113644;28;20040;-73
2021/12/12 10:57:14;;;;;;;6.28;2.58;;;;;;;;;;5113626;28;20028;-72
2021/12/12 10:59:52;;;;;;;;;;;;;;;;;;5114154;28;20027;-71
2021/12/12 11:02:21;;;;;;;6.40;2.95;;;;;;;;;;5113779;28;19926;-71
2021/12/12 11:04:56;;;;;;;3.67;1.90;;;;;;;;;;5113640;28;20126;-70
2021/12/12 11:07:36;;;;;;;4.60;2.40;;;;;;;;;;5113772;28;20058;-73
2021/12/12 11:10:23;;;;;;;4.78;2.50;;;;;;;;;;5113229;28;20030;-71
2021/12/12 11:12:58;;;;;;;5.28;2.30;;;;;;;;;;5113467;28;20030;-72
2021/12/12 11:15:44;;;;;;;4.30;2.03;;;;;;;;;;5113726;28;20032;-74
2021/12/12 11:19:03;;;;;;;5.40;2.60;;;;;;;;;;5113451;28;20111;-73
2021/12/12 11:21:32;;;;;;;5.70;2.33;;;;;;;;;;5055088;28;20474;-72
2021/12/12 11:24:14;;;;;;;4.72;1.98;;;;;;;;;;5051238;28;20037;-70
2021/12/12 11:27:05;;;;;;;5.32;3.03;;;;;;;;;;5090392;28;20118;-73
2021/12/12 11:29:40;;;;;;;8.35;3.88;;;;;;;;;;5107224;28;20101;-70
2021/12/12 11:32:16;;;;;;;4.00;2.30;;;;;;;;;;5108327;28;20123;-73
2021/12/12 11:34:45;;;;;;;4.38;1.95;;;;;;;;;;5117445;27;20506;-73
2021/12/12 11:37:36;;;;;;;4.75;1.88;;;;;;;;;;5117278;28;20036;-73
2021/12/12 11:40:27;;;;;;;3.88;1.88;;;;;;;;;;5117252;28;20034;-74
2021/12/12 11:43:25;;;;;;;3.28;1.85;;;;;;;;;;5117053;28;20491;-72
2021/12/12 11:46:04;;;;;;;5.50;1.80;;;;;;;;;;5116887;27;20038;-70
2021/12/12 11:48:59;;;;;;;4.43;1.88;;;;;;;;;;5117066;27;20039;-71
2021/12/12 11:51:33;;;;;;;3.85;1.80;;;;;;;;;;5117110;28;20108;-72
2021/12/12 11:54:11;;;;;;;5.78;1.90;;;;;;;;;;5117282;28;20401;-72
2021/12/12 11:56:45;;;;;;;5.28;1.70;;;;;;;;;;5117015;28;20084;-71
2021/12/12 11:59:32;;;;;;;3.10;1.60;;;;;;;;;;5116662;28;20116;-73
2021/12/12 12:02:31;;;;;;;3.58;1.45;;;;;;;;;;5116826;28;20375;-71
2021/12/12 12:05:23;;;;;;;3.70;1.40;;;;;;;;;;5116750;28;20035;-72
2021/12/12 12:08:12;;;;;;;3.08;1.40;;;;;;;;;;5116628;28;20031;-70
2021/12/12 12:10:44;;;;;;;3.45;1.90;;;;;;;;;;5116612;28;20028;-72
2021/12/12 12:13:28;;;;;;;3.20;1.40;;;;;;;;;;5116679;28;20429;-71
2021/12/12 12:16:08;;;;;;;2.97;1.20;;;;;;;;;;5116610;28;20110;-70
2021/12/12 12:18:59;;;;;;;3.17;1.30;;;;;;;;;;5116722;28;20031;-72
2021/12/12 12:21:49;;;;;;;2.42;1.20;;;;;;;;;;5116444;28;20071;-73
2021/12/12 12:24:39;;;;;;;3.00;1.27;;;;;;;;;;5116469;28;20140;-72
2021/12/12 12:27:10;;;;;;;4.35;1.63;;;;;;;;;;5116549;28;20699;-71
2021/12/12 12:30:04;;;;;;;3.42;1.40;;;;;;;;;;5114490;28;20039;-74
2021/12/12 12:32:51;;;;;;;3.20;1.40;;;;;;;;;;5111499;28;20031;-74
2021/12/12 12:35:22;;;;;;;2.58;1.40;;;;;;;;;;5116517;28;20035;-71
2021/12/12 12:38:25;;;;;;;2.40;1.20;;;;;;;;;;5116075;28;20080;-73
2021/12/12 12:41:32;;;;;;;3.05;1.27;;;;;;;;;;5115741;28;20084;-73
2021/12/12 12:44:16;;;;;;;6.95;1.30;;;;;;;;;;5064837;28;20690;-72
2021/12/12 12:47:19;;;;;;;3.28;1.73;;;;;;;;;;5116033;28;20168;-72
2021/12/12 12:50:21;;;;;;;3.13;1.42;;;;;;;;;;5115451;28;20078;-71
2021/12/12 12:53:04;;;;;;;2.63;1.40;;;;;;;;;;5115743;28;20046;-73
2021/12/12 12:55:47;;;;;;;5.35;1.48;;;;;;;;;;5115702;28;20533;-72
2021/12/12 12:58:21;;;;;;;2.22;1.05;;;;;;;;;;5115938;28;20123;-71
2021/12/12 13:00:49;;;;;;;1.80;1.00;;;;;;;;;;5115364;28;20396;-72
2021/12/12 13:03:38;;;;;;;4.00;1.50;;;;;;;;;;5115670;28;20034;-73
2021/12/12 13:06:37;;;;;;;5.78;1.98;;;;;;;;;;5115838;28;20024;-71
2021/12/12 13:09:15;;;;;;;3.13;1.35;;;;;;;;;;5115661;28;20038;-71
2021/12/12 13:12:06;;;;;;;1.80;1.10;;;;;;;;;;5115414;28;20035;-71
2021/12/12 13:15:09;;;;;;;3.63;1.30;;;;;;;;;;5115436;28;20487;-71
2021/12/12 13:17:53;;;;;;;3.03;1.20;;;;;;;;;;5115556;28;20053;-71
2021/12/12 13:20:32;;;;;;;4.18;1.20;;;;;;;;;;5115123;28;20035;-72
2021/12/12 13:23:33;;;;;;;3.20;1.30;;;;;;;;;;5115108;28;20466;-70
2021/12/12 13:26:06;;;;;;;;;;;;;;;;;;5093684;28;20039;-75
2021/12/12 13:28:34;;;;;;;2.47;1.20;;;;;;;;;;5115320;28;19911;-73
2021/12/12 13:31:20;;;;;;;2.42;1.10;;;;;;;;;;5112573;28;20031;-70
2021/12/12 13:34:08;;;;;;;2.13;1.20;;;;;;;;;;5114928;28;20487;-72
2021/12/12 13:36:50;;;;;;;1.95;1.08;;;;;;;;;;5115181;28;20449;-73
2021/12/12 13:39:50;;;;;;;4.22;1.13;;;;;;;;;;5114827;28;20039;-71
2021/12/12 13:42:45;;;;;;;2.63;1.13;;;;;;;;;;5114857;28;20357;-69
2021/12/12 13:45:29;;;;;;;2.65;1.10;;;;;;;;;;5114793;28;20083;-72
2021/12/12 13:48:21;;;;;;;1.70;1.00;;;;;;;;;;5114900;28;20042;-73
2021/12/12 13:50:52;;;;;;;1.95;0.90;;;;;;;;;;5114675;28;20111;-72
2021/12/12 13:53:56;;;;;;;4.40;1.05;;;;;;;;;;5114652;28;20037;-73
2021/12/12 13:56:34;;;;;;;1.77;0.93;;;;;;;;;;5114844;28;20027;-72
2021/12/12 13:59:14;;;;;;;3.15;1.10;;;;;;;;;;5114578;28;20050;-73
2021/12/12 14:01:58;;;;;;;2.63;1.08;;;;;;;;;;5114400;28;20031;-72
2021/12/12 14:04:24;;;;;;;2.08;1.02;;;;;;;;;;5114621;28;20182;-72
2021/12/12 14:06:51;;;;;;;1.90;1.20;;;;;;;;;;5114250;28;20511;-72
2021/12/12 14:09:24;;;;;;;3.78;1.10;;;;;;;;;;5114396;28;20028;-70
2021/12/12 14:11:54;;;;;;;3.15;1.50;;;;;;;;;;5114132;28;20027;-71
2021/12/12 14:14:27;;;;;;;2.63;1.10;;;;;;;;;;5114546;28;20067;-70
2021/12/12 14:17:00;;;;;;;2.33;1.00;;;;;;;;;;5114298;28;20096;-72
2021/12/12 14:19:36;;;;;;;2.00;1.10;;;;;;;;;;5114393;28;20058;-72
2021/12/12 14:22:04;;;;;;;2.40;0.93;;;;;;;;;;5114073;28;20380;-69
2021/12/12 14:24:35;;;;;;;1.98;0.93;;;;;;;;;;5114133;28;20480;-73
2021/12/12 14:27:05;;;;;;;2.60;0.90;;;;;;;;;;5114072;28;20110;-72
2021/12/12 14:29:35;;;;;;;1.80;1.00;;;;;;;;;;5113064;28;20027;-73
2021/12/12 14:32:08;;;;;;;2.40;1.05;;;;;;;;;;5113018;28;20380;-73
2021/12/12 14:34:50;;;;;;;2.92;1.50;;;;;;;;;;5114131;28;20027;-72
2021/12/12 14:37:23;;;;;;;3.35;1.38;;;;;;;;;;5114237;28;20027;-70
2021/12/12 14:39:50;;;;;;;1.83;0.98;;;;;;;;;;5113834;28;20100;-71
2021/12/12 14:42:26;;;;;;;2.08;0.95;;;;;;;;;;5113860;28;20038;-70
2021/12/12 14:45:10;;;;;;;2.72;1.50;;;;;;;;;;5114041;28;20516;-73
2021/12/12 14:47:40;;;;;;;4.72;2.80;;;;;;;;;;5113989;28;20032;-71
2021/12/12 14:50:19;;;;;;;7.50;3.38;;;;;;;;;;5113553;28;20035;-72
2021/12/12 14:52:46;;;;;;;5.38;2.60;;;;;;;;;;5113856;28;20118;-72
2021/12/12 14:55:23;;;;;;;4.90;2.00;;;;;;;;;;5113774;28;20103;-71
2021/12/12 14:57:53;;;;;;;3.35;1.60;;;;;;;;;;5113723;28;20027;-71
2021/12/12 15:00:29;;;;;;;2.63;1.38;;;;;;;;;;5112579;28;20443;-70
2021/12/12 15:02:56;;;;;;;5.72;1.60;;;;;;;;;;5113735;28;20119;-72
2021/12/12 15:05:29;;;;;;;3.28;1.40;;;;;;;;;;5113720;28;20042;-73
2021/12/12 15:07:57;;;;;;;3.63;1.25;;;;;;;;;;5117450;28;20452;-71
2021/12/12 15:10:32;;;;;;;2.53;1.20;;;;;;;;;;5117963;28;20031;-73
2021/12/12 15:13:03;;;;;;;2.05;1.10;;;;;;;;;;5117840;28;20449;-72
2021/12/12 15:15:30;;;;;;;;;;;;;;;;;;5118111;28;20462;-74
2021/12/12 15:18:02;;;;;;;3.15;1.33;;;;;;;;;;5117753;28;19949;-73
2021/12/12 15:20:34;;;;;;;3.05;1.30;;;;;;;;;;5117137;27;20047;-72
2021/12/12 15:23:06;;;;;;;2.47;1.30;;;;;;;;;;5117598;27;20089;-70
2021/12/12 15:25:36;;;;;;;2.63;1.35;;;;;;;;;;5117787;28;20028;-75
2021/12/12 15:28:09;;;;;;;3.15;1.60;;;;;;;;;;5117768;28;20023;-72
2021/12/12 15:30:38;;;;;;;4.50;1.52;;;;;;;;;;5113994;28;20523;-71
2021/12/12 15:33:13;;;;;;;3.70;1.50;;;;;;;;;;5117403;28;20028;-71
2021/12/12 15:35:39;;;;;;;2.95;1.58;;;;;;;;;;5117410;28;20103;-73
2021/12/12 15:38:20;;;;;;;5.43;1.95;;;;;;;;;;5117261;27;20031;-74
2021/12/12 15:40:52;;;;;;;3.88;1.65;;;;;;;;;;5117056;28;20023;-71
2021/12/12 15:43:49;;;;;;;3.95;2.22;;;;;;;;;;5117389;28;20092;-70
2021/12/12 15:46:18;;;;;;;9.48;2.50;;;;;;;;;;5116665;28;20505;-72